Time;durP1;ratioP1;P1;durP2;ratioP2;P2;SDS_P1;SDS_P2;PMS_P1;PMS_P2;Temp;Humidity;BMP_temperature;BMP_pressure;BME280_temperature;BME280_humidity;BME280_pressure;Samples;Min_cycle;Max_cycle;Signal;HPM_P1;HPM_P2
2022/03/11 00:01:53;;;;;;;71.28;48.38;;;8.90;77.50;;;;;;5040807;28;20033;-88
2022/03/11 00:04:19;;;;;;;77.45;49.47;;;8.80;78.10;;;;;;5036138;28;20035;-89
2022/03/11 00:06:44;;;;;;;74.25;48.25;;;8.90;77.90;;;;;;5028429;28;20116;-90
2022/03/11 00:09:10;;;;;;;79.85;53.22;;;8.90;77.50;;;;;;4998724;28;20038;-88
2022/03/11 00:11:37;;;;;;;76.82;49.30;;;8.90;77.50;;;;;;5015859;28;20030;-89
2022/03/11 00:14:02;;;;;;;71.55;47.05;;;8.90;77.60;;;;;;5014690;28;20034;-87
2022/03/11 00:16:28;;;;;;;78.55;52.92;;;9.00;77.10;;;;;;5015769;28;20470;-88
2022/03/11 00:18:54;;;;;;;72.97;47.97;;;9.00;77.30;;;;;;5028409;28;20030;-86
2022/03/11 00:21:19;;;;;;;70.82;47.30;;;8.90;77.70;;;;;;5017667;28;20064;-89
2022/03/11 00:23:45;;;;;;;70.78;47.60;;;9.00;77.60;;;;;;5035401;28;20041;-87
2022/03/11 00:26:11;;;;;;;67.45;44.65;;;9.00;77.60;;;;;;5035708;28;20382;-88
2022/03/11 00:28:38;;;;;;;66.53;44.40;;;9.00;77.00;;;;;;5035793;28;20036;-88
2022/03/11 00:31:05;;;;;;;64.88;44.05;;;9.00;76.60;;;;;;5035358;28;20464;-88
2022/03/11 00:33:31;;;;;;;65.00;42.45;;;9.10;76.30;;;;;;5017056;28;20398;-88
2022/03/11 00:35:57;;;;;;;59.90;39.30;;;9.20;75.20;;;;;;5035433;28;20120;-88
2022/03/11 00:38:23;;;;;;;59.90;40.17;;;9.20;74.90;;;;;;5007107;28;20042;-90
2022/03/11 00:40:51;;;;;;;59.05;39.20;;;9.20;74.30;;;;;;4998639;28;20057;-91
2022/03/11 00:43:17;;;;;;;65.95;42.53;;;9.10;73.80;;;;;;5017057;28;20041;-91
2022/03/11 00:45:43;;;;;;;57.67;37.30;;;9.10;73.70;;;;;;5017107;28;20061;-91
2022/03/11 00:48:09;;;;;;;62.17;41.50;;;9.20;73.80;;;;;;4999377;28;20038;-91
2022/03/11 00:50:35;;;;;;;56.60;38.75;;;9.20;74.60;;;;;;5016567;28;20034;-90
2022/03/11 00:53:02;;;;;;;58.13;39.05;;;9.20;74.10;;;;;;4998159;28;20034;-89
2022/03/11 00:55:28;;;;;;;55.65;38.40;;;9.10;73.60;;;;;;5015669;28;20078;-89
2022/03/11 00:57:54;;;;;;;58.70;36.95;;;9.20;73.90;;;;;;4997767;28;20092;-86
2022/03/11 01:00:20;;;;;;;59.70;38.88;;;9.20;73.50;;;;;;5034908;28;20421;-86
2022/03/11 01:02:45;;;;;;;55.47;38.67;;;9.20;73.50;;;;;;5034628;28;20474;-89
2022/03/11 01:05:11;;;;;;;57.42;40.20;;;9.20;73.60;;;;;;5024381;28;20112;-88
2022/03/11 01:07:38;;;;;;;61.47;42.13;;;9.10;72.90;;;;;;5033725;28;20038;-88
2022/03/11 01:10:05;;;;;;;61.92;39.15;;;9.00;73.50;;;;;;5033048;28;20128;-88
2022/03/11 01:12:31;;;;;;;60.28;39.72;;;8.80;73.80;;;;;;5014768;28;20045;-88
2022/03/11 01:14:57;;;;;;;64.35;41.50;;;8.90;72.70;;;;;;5005368;28;20041;-87
2022/03/11 01:17:22;;;;;;;59.55;40.03;;;8.80;73.10;;;;;;5034749;28;20042;-87
2022/03/11 01:19:48;;;;;;;63.38;40.83;;;8.80;73.30;;;;;;5029539;28;20061;-87
2022/03/11 01:22:14;;;;;;;67.22;41.85;;;8.80;73.40;;;;;;5033141;28;20092;-88
2022/03/11 01:24:40;;;;;;;61.55;40.72;;;8.70;73.30;;;;;;5025033;28;20033;-87
2022/03/11 01:27:05;;;;;;;56.50;39.30;;;8.70;73.10;;;;;;5015175;28;20482;-88
2022/03/11 01:29:31;;;;;;;63.30;42.45;;;8.70;73.70;;;;;;5015070;28;20042;-87
2022/03/11 01:31:57;;;;;;;54.80;37.40;;;8.60;72.90;;;;;;5022873;28;20039;-85
2022/03/11 01:34:23;;;;;;;61.78;40.90;;;8.60;73.00;;;;;;5020063;28;20034;-86
2022/03/11 01:36:48;;;;;;;59.35;38.15;;;8.60;73.10;;;;;;5013493;28;20046;-86
2022/03/11 01:39:15;;;;;;;58.60;39.38;;;8.50;73.10;;;;;;5006244;28;20114;-85
2022/03/11 01:41:40;;;;;;;57.22;35.92;;;8.50;72.80;;;;;;5015160;28;20108;-85
2022/03/11 01:44:08;;;;;;;65.32;39.67;;;8.50;72.90;;;;;;4996608;28;20121;-85
2022/03/11 01:46:35;;;;;;;51.03;34.63;;;8.50;72.70;;;;;;5014198;28;20026;-85
2022/03/11 01:49:03;;;;;;;56.30;37.78;;;8.50;72.70;;;;;;4996724;28;20462;-85
2022/03/11 01:51:31;;;;;;;63.85;39.42;;;8.40;73.00;;;;;;5002117;28;20037;-85
2022/03/11 01:53:57;;;;;;;58.10;36.55;;;8.40;73.00;;;;;;5017657;28;20034;-85
2022/03/11 01:56:24;;;;;;;52.70;34.13;;;8.40;72.80;;;;;;5011496;28;20437;-86
2022/03/11 01:58:51;;;;;;;52.03;35.47;;;8.50;72.30;;;;;;5014508;28;20093;-85
2022/03/11 02:01:18;;;;;;;49.85;32.80;;;8.50;72.30;;;;;;4996416;28;20171;-85
2022/03/11 02:03:44;;;;;;;51.53;35.13;;;8.40;71.90;;;;;;5028811;28;20057;-84
2022/03/11 02:06:16;;;;;;;52.60;36.03;;;8.50;72.70;;;;;;5016097;28;20061;-85
2022/03/11 02:08:43;;;;;;;49.53;33.60;;;8.50;71.90;;;;;;5032417;28;20087;-85
2022/03/11 02:11:11;;;;;;;47.10;32.28;;;8.40;71.70;;;;;;5023925;28;20125;-85
2022/03/11 02:13:49;;;;;;;51.30;34.08;;;8.50;71.30;;;;;;5026883;28;20041;-85
2022/03/11 02:16:19;;;;;;;49.03;34.00;;;8.40;71.30;;;;;;5016410;28;20048;-84
2022/03/11 02:18:46;;;;;;;42.90;30.23;;;8.40;71.80;;;;;;5026882;28;20034;-86
2022/03/11 02:21:13;;;;;;;46.60;31.48;;;8.40;71.30;;;;;;5023497;28;20041;-85
2022/03/11 02:23:46;;;;;;;49.58;31.58;;;8.40;71.10;;;;;;5030442;28;20523;-85
2022/03/11 02:26:13;;;;;;;45.35;31.17;;;8.40;70.90;;;;;;5030742;28;20588;-85
2022/03/11 02:28:39;;;;;;;45.15;28.73;;;8.30;71.30;;;;;;5026334;28;20397;-85
2022/03/11 02:31:05;;;;;;;41.70;28.20;;;8.40;70.70;;;;;;5023375;28;20046;-85
2022/03/11 02:33:30;;;;;;;49.72;31.13;;;8.40;70.80;;;;;;5013420;28;20042;-86
2022/03/11 02:35:56;;;;;;;50.80;30.77;;;8.40;70.70;;;;;;5023211;28;20038;-85
2022/03/11 02:38:22;;;;;;;45.15;29.20;;;8.30;71.00;;;;;;5026808;28;20044;-86
2022/03/11 02:40:47;;;;;;;38.15;25.98;;;8.30;70.70;;;;;;5013364;28;20042;-86
2022/03/11 02:43:17;;;;;;;41.70;26.35;;;8.30;71.30;;;;;;5019369;28;20034;-85
2022/03/11 02:45:43;;;;;;;44.58;29.52;;;8.30;70.70;;;;;;5025416;28;20046;-86
2022/03/11 02:48:08;;;;;;;41.97;26.95;;;8.20;71.20;;;;;;5013411;28;20030;-86
2022/03/11 02:50:34;;;;;;;38.00;26.40;;;8.20;70.40;;;;;;5016747;28;20405;-86
2022/03/11 02:53:00;;;;;;;40.33;26.17;;;8.30;70.80;;;;;;5029599;28;20072;-87
2022/03/11 02:55:26;;;;;;;35.88;24.85;;;8.20;70.50;;;;;;5017439;28;20037;-87
2022/03/11 02:57:52;;;;;;;39.58;25.52;;;8.40;70.00;;;;;;5031422;28;20048;-87
2022/03/11 03:00:18;;;;;;;42.45;27.73;;;8.40;69.50;;;;;;5013410;28;20045;-85
2022/03/11 03:02:43;;;;;;;42.70;25.58;;;8.40;69.60;;;;;;5013148;28;20486;-85
2022/03/11 03:05:09;;;;;;;35.05;23.58;;;8.40;69.30;;;;;;5012003;28;20044;-85
2022/03/11 03:07:35;;;;;;;38.83;23.83;;;8.40;68.60;;;;;;5026217;28;20034;-86
2022/03/11 03:10:01;;;;;;;33.28;22.88;;;8.50;68.20;;;;;;5029831;28;20099;-86
2022/03/11 03:12:27;;;;;;;37.40;24.88;;;8.50;68.70;;;;;;5018121;28;20045;-87
2022/03/11 03:14:53;;;;;;;35.40;22.80;;;8.50;68.50;;;;;;5013653;28;20066;-87
2022/03/11 03:17:21;;;;;;;37.45;24.98;;;8.40;68.60;;;;;;5015531;28;20040;-87
2022/03/11 03:19:47;;;;;;;32.75;21.63;;;8.50;67.70;;;;;;5015437;28;20121;-86
2022/03/11 03:22:13;;;;;;;35.65;22.90;;;8.50;67.50;;;;;;5013134;28;20037;-86
2022/03/11 03:24:39;;;;;;;34.78;22.40;;;8.60;67.30;;;;;;5019111;28;20025;-86
2022/03/11 03:27:05;;;;;;;36.03;22.73;;;8.50;67.40;;;;;;5036588;28;20038;-86
2022/03/11 03:29:30;;;;;;;31.73;20.95;;;8.40;67.90;;;;;;5036563;28;20095;-87
2022/03/11 03:31:58;;;;;;;33.38;20.98;;;8.40;67.30;;;;;;5018946;28;20033;-86
2022/03/11 03:34:31;;;;;;;32.85;20.42;;;8.40;67.40;;;;;;5023007;28;20042;-86
2022/03/11 03:36:59;;;;;;;28.92;20.05;;;8.50;67.10;;;;;;5025256;28;20034;-86
2022/03/11 03:39:25;;;;;;;30.33;21.63;;;8.40;67.30;;;;;;5016972;28;20038;-86
2022/03/11 03:41:51;;;;;;;36.15;20.23;;;8.50;67.70;;;;;;5017298;28;20032;-87
2022/03/11 03:44:17;;;;;;;24.75;17.58;;;8.50;67.30;;;;;;5016659;28;20042;-87
2022/03/11 03:46:43;;;;;;;34.53;21.05;;;8.50;67.20;;;;;;5016693;28;20026;-87
2022/03/11 03:49:09;;;;;;;30.10;19.35;;;8.50;66.90;;;;;;5017939;28;20037;-86
2022/03/11 03:51:34;;;;;;;28.50;18.83;;;8.60;67.00;;;;;;5037141;28;20037;-87
2022/03/11 03:54:01;;;;;;;30.42;18.50;;;8.60;66.60;;;;;;5036307;28;20025;-85
2022/03/11 03:56:26;;;;;;;28.42;19.48;;;8.70;66.10;;;;;;5017754;28;20092;-85
2022/03/11 03:58:52;;;;;;;25.80;17.52;;;8.60;66.40;;;;;;5026803;28;20073;-85
2022/03/11 04:01:18;;;;;;;29.25;19.02;;;8.70;65.90;;;;;;5035895;28;20500;-86
2022/03/11 04:03:43;;;;;;;28.85;18.27;;;8.60;66.10;;;;;;5026058;28;20479;-86
2022/03/11 04:06:09;;;;;;;25.35;16.63;;;8.60;65.40;;;;;;5017700;28;20101;-86
2022/03/11 04:08:35;;;;;;;26.70;17.30;;;8.70;65.30;;;;;;5031952;28;20049;-86
2022/03/11 04:11:00;;;;;;;25.80;16.30;;;8.80;64.80;;;;;;5023915;28;20417;-86
2022/03/11 04:13:26;;;;;;;27.05;17.00;;;8.80;64.60;;;;;;5026121;28;20041;-84
2022/03/11 04:15:52;;;;;;;26.55;17.35;;;8.80;64.50;;;;;;5024736;28;20045;-85
2022/03/11 04:18:18;;;;;;;25.80;15.50;;;8.70;64.40;;;;;;5034942;28;20049;-84
2022/03/11 04:20:43;;;;;;;23.20;16.08;;;8.70;64.30;;;;;;5027594;28;20034;-85
2022/03/11 04:23:09;;;;;;;25.60;16.63;;;8.70;63.70;;;;;;5024018;28;20041;-85
2022/03/11 04:25:41;;;;;;;22.27;14.95;;;8.70;64.50;;;;;;5006875;28;20041;-84
2022/03/11 04:28:07;;;;;;;27.50;16.77;;;8.70;64.10;;;;;;5017341;28;20042;-86
2022/03/11 04:30:33;;;;;;;21.42;14.73;;;8.70;64.40;;;;;;5023776;28;20163;-84
2022/03/11 04:33:01;;;;;;;20.92;14.57;;;8.70;64.30;;;;;;5029848;28;20485;-84
2022/03/11 04:35:27;;;;;;;19.00;14.45;;;8.70;64.10;;;;;;5010429;28;20128;-83
2022/03/11 04:37:52;;;;;;;23.92;13.88;;;8.80;64.20;;;;;;5028415;28;20172;-85
2022/03/11 04:40:18;;;;;;;20.15;14.48;;;8.80;63.60;;;;;;5021308;28;20049;-85
2022/03/11 04:42:44;;;;;;;19.90;14.70;;;8.70;63.30;;;;;;5029615;28;20045;-85
2022/03/11 04:45:10;;;;;;;16.75;12.52;;;8.80;62.60;;;;;;5028036;28;20029;-83
2022/03/11 04:47:35;;;;;;;16.65;12.88;;;8.70;62.40;;;;;;5029667;28;20049;-84
2022/03/11 04:50:01;;;;;;;20.75;14.23;;;8.80;62.10;;;;;;5033790;28;20096;-84
2022/03/11 04:52:27;;;;;;;21.38;13.88;;;8.80;62.50;;;;;;5014870;28;20045;-85
2022/03/11 04:54:53;;;;;;;22.50;14.23;;;8.80;61.90;;;;;;5021109;28;20039;-85
2022/03/11 04:57:19;;;;;;;19.63;13.52;;;8.70;62.00;;;;;;5019674;28;20525;-87
2022/03/11 04:59:45;;;;;;;22.65;13.43;;;8.70;62.50;;;;;;5028917;28;20038;-90
2022/03/11 05:02:12;;;;;;;16.02;11.45;;;8.70;62.10;;;;;;5017788;28;20605;-88
2022/03/11 05:04:37;;;;;;;22.73;12.85;;;8.70;62.00;;;;;;4997611;28;20046;-88
2022/03/11 05:07:06;;;;;;;18.52;12.45;;;8.70;62.00;;;;;;5020445;28;20091;-87
2022/03/11 05:09:31;;;;;;;19.25;11.65;;;8.70;61.60;;;;;;5018584;28;20080;-89
2022/03/11 05:11:57;;;;;;;19.00;13.50;;;8.70;62.30;;;;;;5019865;28;20045;-87
2022/03/11 05:14:23;;;;;;;18.05;11.93;;;8.70;61.90;;;;;;4997945;28;20038;-87
2022/03/11 05:16:48;;;;;;;17.45;12.73;;;8.70;61.80;;;;;;5012431;28;20033;-87
2022/03/11 05:19:14;;;;;;;19.38;13.18;;;8.50;61.40;;;;;;5023052;28;20033;-87
2022/03/11 05:21:40;;;;;;;20.00;11.98;;;8.50;61.90;;;;;;5021736;28;20467;-87
2022/03/11 05:24:06;;;;;;;18.00;12.40;;;8.60;62.60;;;;;;5019422;28;20073;-87
2022/03/11 05:26:31;;;;;;;20.63;12.77;;;8.70;62.10;;;;;;5020350;28;20402;-86
2022/03/11 05:28:59;;;;;;;17.67;12.80;;;8.60;62.30;;;;;;5022157;28;20087;-84
2022/03/11 05:31:26;;;;;;;17.67;12.23;;;8.60;62.50;;;;;;5034591;28;20045;-85
2022/03/11 05:33:55;;;;;;;17.45;12.68;;;8.70;61.60;;;;;;5025505;28;20036;-84
2022/03/11 05:36:24;;;;;;;18.50;12.27;;;8.70;61.90;;;;;;5025688;28;20121;-84
2022/03/11 05:38:50;;;;;;;21.13;13.30;;;8.70;61.80;;;;;;5022730;28;20034;-84
2022/03/11 05:41:16;;;;;;;20.27;13.30;;;8.70;62.00;;;;;;5026489;28;20030;-85
2022/03/11 05:43:42;;;;;;;18.42;12.70;;;8.70;61.40;;;;;;5030120;28;20045;-85
2022/03/11 05:46:08;;;;;;;22.95;13.40;;;8.70;61.60;;;;;;5006811;28;20038;-85
2022/03/11 05:48:34;;;;;;;21.63;12.65;;;8.70;61.60;;;;;;5002822;28;20151;-85
2022/03/11 05:51:00;;;;;;;21.88;13.63;;;8.70;61.60;;;;;;5020595;28;20072;-85
2022/03/11 05:53:26;;;;;;;24.13;14.82;;;8.80;61.50;;;;;;5023676;28;20421;-86
2022/03/11 05:55:51;;;;;;;22.42;14.60;;;8.60;62.30;;;;;;5026588;28;20477;-85
2022/03/11 05:58:17;;;;;;;19.77;12.30;;;8.60;61.70;;;;;;5020278;28;20101;-85
2022/03/11 06:00:43;;;;;;;24.90;14.48;;;8.60;61.40;;;;;;5020661;28;20085;-89
2022/03/11 06:03:09;;;;;;;20.08;12.80;;;8.70;61.20;;;;;;5009882;28;20057;-88
2022/03/11 06:05:34;;;;;;;21.77;14.32;;;8.60;61.40;;;;;;5016771;28;20441;-87
2022/03/11 06:08:00;;;;;;;21.13;13.82;;;8.70;61.50;;;;;;5022638;28;20034;-89
2022/03/11 06:10:26;;;;;;;18.70;13.57;;;8.70;62.40;;;;;;5016744;28;20378;-88
2022/03/11 06:12:54;;;;;;;22.85;12.63;;;8.70;60.60;;;;;;5027322;28;20125;-88
2022/03/11 06:15:20;;;;;;;23.63;13.48;;;8.70;60.80;;;;;;5014180;28;20423;-93
2022/03/11 06:17:46;;;;;;;22.10;14.02;;;8.70;60.60;;;;;;5014089;28;20040;-84
2022/03/11 06:20:13;;;;;;;19.38;14.13;;;8.70;60.90;;;;;;5023293;28;20038;-87
2022/03/11 06:22:49;;;;;;;20.98;13.93;;;8.70;61.50;;;;;;5013603;28;20041;-88
2022/03/11 06:25:16;;;;;;;23.55;13.88;;;8.60;60.70;;;;;;5015987;28;20025;-87
2022/03/11 06:27:46;;;;;;;20.67;13.60;;;8.60;61.80;;;;;;5023663;28;20042;-85
2022/03/11 06:30:12;;;;;;;19.70;14.63;;;8.60;62.10;;;;;;5020941;28;20095;-86
2022/03/11 06:32:47;;;;;;;23.52;14.38;;;8.60;62.00;;;;;;5027737;28;20462;-86
2022/03/11 06:35:13;;;;;;;20.23;14.57;;;8.60;60.70;;;;;;5013207;28;20046;-85
2022/03/11 06:37:44;;;;;;;24.70;14.60;;;8.60;61.40;;;;;;5022703;28;20121;-85
2022/03/11 06:40:11;;;;;;;24.70;14.60;;;8.60;61.60;;;;;;5029441;28;20038;-87
2022/03/11 06:42:38;;;;;;;19.33;14.63;;;8.60;61.50;;;;;;5019563;28;20121;-86
2022/03/11 06:45:06;;;;;;;20.67;13.52;;;8.60;61.10;;;;;;5022610;28;20041;-90
2022/03/11 06:47:32;;;;;;;227.15;27.35;;;8.60;60.70;;;;;;5026478;28;20063;-86
2022/03/11 06:49:57;;;;;;;26.98;13.27;;;8.70;61.20;;;;;;5023714;28;20408;-84
2022/03/11 06:52:26;;;;;;;21.30;14.95;;;8.80;61.50;;;;;;5022235;28;20481;-84
2022/03/11 06:54:52;;;;;;;25.55;15.13;;;8.80;60.70;;;;;;5021659;28;20107;-84
2022/03/11 06:57:18;;;;;;;23.08;14.38;;;8.80;61.20;;;;;;5012758;28;20050;-84
2022/03/11 06:59:44;;;;;;;24.90;14.45;;;8.90;60.60;;;;;;5022575;28;20036;-86
2022/03/11 07:02:10;;;;;;;24.08;15.27;;;9.00;59.70;;;;;;5026795;28;20045;-86
2022/03/11 07:04:36;;;;;;;21.95;15.15;;;8.90;60.40;;;;;;5023054;28;20038;-88
2022/03/11 07:07:03;;;;;;;21.45;14.88;;;9.00;59.70;;;;;;5013930;28;20069;-88
2022/03/11 07:09:29;;;;;;;23.58;15.57;;;9.10;59.30;;;;;;5026631;28;20053;-86
2022/03/11 07:11:57;;;;;;;21.60;14.80;;;9.00;59.30;;;;;;5029636;28;20034;-84
2022/03/11 07:14:29;;;;;;;23.00;15.60;;;9.00;60.20;;;;;;4999522;28;20053;-85
2022/03/11 07:16:56;;;;;;;21.92;15.85;;;8.90;59.30;;;;;;5011104;28;20121;-85
2022/03/11 07:19:23;;;;;;;25.23;16.27;;;8.80;59.80;;;;;;5022499;28;20034;-85
2022/03/11 07:21:49;;;;;;;23.35;15.50;;;8.80;60.00;;;;;;5026325;28;20403;-82
2022/03/11 07:24:15;;;;;;;21.02;14.88;;;8.70;61.20;;;;;;5029177;28;20120;-83
2022/03/11 07:26:40;;;;;;;21.88;14.63;;;8.80;61.20;;;;;;5029132;28;20034;-83
2022/03/11 07:29:06;;;;;;;22.17;14.93;;;8.90;61.60;;;;;;5030738;28;20454;-84
2022/03/11 07:31:32;;;;;;;28.70;16.10;;;9.00;60.70;;;;;;5030020;28;20041;-84
2022/03/11 07:33:59;;;;;;;19.48;14.25;;;9.10;60.10;;;;;;5028549;28;20037;-83
2022/03/11 07:36:25;;;;;;;20.10;15.02;;;8.90;59.50;;;;;;5022149;28;20097;-83
2022/03/11 07:38:50;;;;;;;19.92;14.60;;;8.90;60.70;;;;;;5017506;28;20130;-83
2022/03/11 07:41:17;;;;;;;22.83;14.82;;;8.80;60.80;;;;;;5034363;28;20132;-82
2022/03/11 07:43:47;;;;;;;21.80;15.05;;;8.90;60.90;;;;;;5022714;28;20036;-83
2022/03/11 07:46:14;;;;;;;21.35;14.63;;;8.90;61.10;;;;;;5028797;28;20030;-84
2022/03/11 07:48:40;;;;;;;22.27;14.70;;;9.00;60.70;;;;;;5008818;28;20723;-84
2022/03/11 07:51:09;;;;;;;23.25;16.23;;;9.00;60.70;;;;;;5023294;28;20037;-83
2022/03/11 07:53:36;;;;;;;20.40;14.82;;;9.00;59.60;;;;;;5025621;28;20042;-83
2022/03/11 07:56:07;;;;;;;21.92;14.80;;;9.00;60.10;;;;;;5026248;28;20034;-84
2022/03/11 07:58:33;;;;;;;21.55;15.43;;;9.10;60.00;;;;;;5006652;28;20041;-84
2022/03/11 08:00:59;;;;;;;19.38;14.05;;;9.10;60.10;;;;;;5025918;28;20041;-84
2022/03/11 08:03:25;;;;;;;24.75;14.38;;;9.00;60.20;;;;;;5027989;28;20038;-84
2022/03/11 08:05:56;;;;;;;27.10;15.35;;;9.20;61.00;;;;;;5033138;28;20104;-85
2022/03/11 08:08:25;;;;;;;23.55;16.20;;;9.20;59.70;;;;;;5007553;28;20046;-85
2022/03/11 08:11:20;;;;;;;23.00;16.27;;;9.20;59.10;;;;;;5029621;28;20069;-84
2022/03/11 08:13:46;;;;;;;27.10;15.25;;;9.10;59.10;;;;;;5023319;28;20041;-85
2022/03/11 08:16:12;;;;;;;20.52;14.60;;;9.20;60.30;;;;;;5025074;28;20433;-85
2022/03/11 08:18:42;;;;;;;214.35;141.38;;;9.20;60.00;;;;;;5034019;28;20133;-85
2022/03/11 08:21:10;;;;;;;78.18;40.97;;;9.30;59.90;;;;;;5030728;28;20113;-82
2022/03/11 08:23:42;;;;;;;20.80;15.48;;;9.40;59.40;;;;;;5021713;28;20484;-82
2022/03/11 08:26:14;;;;;;;26.65;16.83;;;9.40;59.50;;;;;;5003405;28;20062;-85
2022/03/11 08:28:40;;;;;;;21.42;13.80;;;9.40;59.10;;;;;;5019846;28;20074;-83
2022/03/11 08:31:09;;;;;;;20.85;15.27;;;9.30;60.20;;;;;;5039679;28;20041;-84
2022/03/11 08:33:37;;;;;;;22.92;15.38;;;9.40;60.50;;;;;;5037778;28;20041;-84
2022/03/11 08:36:03;;;;;;;21.52;14.10;;;9.50;62.90;;;;;;5037549;28;20037;-84
2022/03/11 08:38:29;;;;;;;23.80;16.50;;;9.50;60.70;;;;;;5022143;28;20037;-85
2022/03/11 08:40:54;;;;;;;21.00;14.63;;;9.60;60.40;;;;;;5027168;28;20958;-85
2022/03/11 08:43:22;;;;;;;20.77;15.02;;;9.70;59.40;;;;;;5033194;28;20137;-85
2022/03/11 08:45:47;;;;;;;23.33;14.38;;;9.70;60.20;;;;;;5018157;28;20533;-85
2022/03/11 08:48:13;;;;;;;20.92;14.32;;;9.70;59.20;;;;;;5007474;28;20033;-85
2022/03/11 08:50:39;;;;;;;24.38;14.98;;;9.80;60.00;;;;;;5026422;28;20038;-85
2022/03/11 08:53:05;;;;;;;26.38;14.75;;;9.90;59.60;;;;;;5032315;28;20037;-85
2022/03/11 08:55:30;;;;;;;23.42;15.68;;;9.80;58.90;;;;;;5033292;28;20171;-84
2022/03/11 08:57:56;;;;;;;23.20;15.57;;;9.70;59.00;;;;;;5019549;28;20046;-85
2022/03/11 09:00:23;;;;;;;28.45;16.50;;;9.70;59.00;;;;;;5000607;28;20469;-85
2022/03/11 09:02:49;;;;;;;25.17;14.75;;;9.60;59.50;;;;;;5032094;28;20153;-85
2022/03/11 09:05:18;;;;;;;20.80;15.05;;;9.70;59.10;;;;;;5033574;28;20038;-85
2022/03/11 09:07:44;;;;;;;26.90;16.38;;;9.70;59.50;;;;;;5015500;28;20049;-82
2022/03/11 09:10:11;;;;;;;21.02;13.68;;;9.80;59.80;;;;;;5029660;28;20041;-82
2022/03/11 09:12:38;;;;;;;18.77;14.07;;;9.80;59.90;;;;;;5022488;28;20124;-82
2022/03/11 09:15:05;;;;;;;26.85;15.25;;;10.00;59.00;;;;;;5033297;28;20473;-82
2022/03/11 09:17:31;;;;;;;19.60;14.82;;;10.00;59.90;;;;;;5015362;28;20125;-83
2022/03/11 09:20:00;;;;;;;19.92;13.18;;;9.90;60.20;;;;;;5021113;28;20048;-85
2022/03/11 09:22:27;;;;;;;24.20;13.70;;;10.00;59.30;;;;;;5018837;28;20038;-84
2022/03/11 09:24:52;;;;;;;24.65;13.93;;;10.00;60.70;;;;;;5024068;28;20029;-85
2022/03/11 09:27:18;;;;;;;18.00;13.60;;;10.10;60.60;;;;;;5033238;28;20405;-83
2022/03/11 09:29:44;;;;;;;21.50;14.15;;;10.10;59.90;;;;;;5032819;28;20077;-82
2022/03/11 09:32:10;;;;;;;21.17;13.52;;;10.20;58.50;;;;;;5016031;28;20480;-82
2022/03/11 09:34:37;;;;;;;20.67;13.73;;;10.30;58.60;;;;;;5021577;28;20046;-83
2022/03/11 09:37:03;;;;;;;24.50;14.00;;;10.40;58.80;;;;;;5032379;28;20079;-83
2022/03/11 09:39:29;;;;;;;20.20;13.93;;;10.40;58.00;;;;;;5025030;28;20082;-83
2022/03/11 09:41:55;;;;;;;18.58;13.65;;;10.40;59.80;;;;;;5025192;28;20034;-83
2022/03/11 09:44:21;;;;;;;20.00;14.43;;;10.30;58.50;;;;;;5020916;28;20036;-83
2022/03/11 09:46:47;;;;;;;20.40;12.55;;;10.30;58.10;;;;;;5013345;28;20045;-80
2022/03/11 09:49:14;;;;;;;29.92;13.35;;;10.30;60.50;;;;;;5022506;28;20406;-83
2022/03/11 09:51:45;;;;;;;19.92;13.63;;;10.50;59.60;;;;;;5026355;28;20509;-83
2022/03/11 09:54:12;;;;;;;18.13;13.60;;;10.60;58.40;;;;;;5025039;28;20876;-85
2022/03/11 09:56:40;;;;;;;21.05;13.13;;;10.60;57.50;;;;;;5023618;28;20406;-84
2022/03/11 09:59:07;;;;;;;23.30;12.88;;;10.70;58.20;;;;;;5032060;28;20033;-83
2022/03/11 10:01:33;;;;;;;18.60;12.07;;;10.70;58.10;;;;;;5027659;28;20485;-84
2022/03/11 10:04:02;;;;;;;17.42;12.13;;;10.70;58.10;;;;;;5026140;28;20075;-84
2022/03/11 10:06:38;;;;;;;20.50;12.02;;;10.70;58.40;;;;;;5022633;28;20045;-84
2022/03/11 10:09:05;;;;;;;15.77;11.98;;;10.80;58.20;;;;;;5030044;28;20049;-85
2022/03/11 10:11:30;;;;;;;19.73;12.13;;;10.90;58.40;;;;;;5011923;28;20038;-86
2022/03/11 10:14:07;;;;;;;15.43;10.07;;;11.00;57.40;;;;;;5018110;28;20188;-87
2022/03/11 10:16:34;;;;;;;16.45;10.02;;;11.10;57.60;;;;;;5019948;28;20148;-87
2022/03/11 10:19:05;;;;;;;16.88;9.60;;;11.10;56.50;;;;;;5030539;28;20033;-87
2022/03/11 10:21:42;;;;;;;15.55;8.50;;;11.20;56.70;;;;;;5019609;28;20033;-86
2022/03/11 10:24:18;;;;;;;11.25;7.65;;;11.20;55.30;;;;;;5021738;28;20037;-86
2022/03/11 10:26:49;;;;;;;16.45;8.80;;;11.30;55.70;;;;;;5020912;28;20042;-85
2022/03/11 10:29:17;;;;;;;12.30;9.23;;;11.30;55.30;;;;;;5018010;28;20042;-86
2022/03/11 10:31:48;;;;;;;14.57;9.30;;;11.30;55.50;;;;;;5003299;28;20100;-84
2022/03/11 10:34:27;;;;;;;15.48;9.07;;;11.40;56.70;;;;;;5000062;28;20030;-84
2022/03/11 10:36:57;;;;;;;10.90;7.17;;;11.40;55.50;;;;;;5019789;28;20034;-84
2022/03/11 10:39:31;;;;;;;12.38;6.57;;;11.50;55.20;;;;;;5012899;28;20474;-89
2022/03/11 10:42:18;;;;;;;14.18;6.20;;;11.60;53.80;;;;;;5024349;28;20053;-85
2022/03/11 10:44:55;;;;;;;8.93;4.80;;;11.60;54.50;;;;;;5028772;28;20037;-84
2022/03/11 10:47:23;;;;;;;10.55;5.30;;;11.70;53.10;;;;;;5007322;28;20045;-87
2022/03/11 10:49:50;;;;;;;7.60;4.57;;;11.70;53.40;;;;;;5032810;28;20095;-87
2022/03/11 10:52:37;;;;;;;9.00;5.25;;;11.70;52.20;;;;;;5032092;28;20480;-84
2022/03/11 10:55:26;;;;;;;6.68;4.10;;;11.80;51.90;;;;;;5031811;28;20533;-84
2022/03/11 10:57:59;;;;;;;8.85;4.13;;;11.90;51.70;;;;;;5011565;28;20034;-84
2022/03/11 11:00:26;;;;;;;8.70;4.20;;;11.90;52.20;;;;;;5031521;28;20038;-85
2022/03/11 11:02:57;;;;;;;7.15;3.80;;;12.00;50.80;;;;;;5031101;28;20029;-84
2022/03/11 11:05:24;;;;;;;9.90;4.20;;;12.00;49.00;;;;;;5031840;28;20116;-85
2022/03/11 11:07:51;;;;;;;7.72;3.90;;;12.00;48.80;;;;;;5031754;28;20030;-84
2022/03/11 11:10:19;;;;;;;9.48;4.13;;;12.00;49.80;;;;;;5031195;28;20069;-85
2022/03/11 11:12:45;;;;;;;6.40;3.65;;;12.10;50.30;;;;;;5013933;28;20025;-84
2022/03/11 11:15:12;;;;;;;8.82;4.03;;;12.10;47.80;;;;;;5031926;28;20038;-84
2022/03/11 11:17:40;;;;;;;7.57;3.88;;;12.10;49.10;;;;;;5014687;28;20030;-85
2022/03/11 11:20:45;;;;;;;10.73;4.18;;;12.20;48.30;;;;;;5042028;28;20040;-84
2022/03/11 11:23:11;;;;;;;6.43;3.65;;;12.30;48.90;;;;;;5010021;28;20057;-88
2022/03/11 11:25:38;;;;;;;13.05;4.75;;;12.40;50.00;;;;;;4994537;28;20034;-87
2022/03/11 11:28:10;;;;;;;9.32;4.57;;;12.50;48.60;;;;;;5012657;28;20030;-88
2022/03/11 11:30:38;;;;;;;18.95;4.28;;;12.50;48.00;;;;;;4993835;28;20045;-88
2022/03/11 11:33:05;;;;;;;9.93;4.47;;;12.50;47.30;;;;;;5030866;28;20037;-88
2022/03/11 11:35:32;;;;;;;8.75;4.43;;;12.50;47.50;;;;;;5030636;28;20072;-88
2022/03/11 11:38:00;;;;;;;6.78;3.72;;;12.50;47.50;;;;;;5014449;28;20053;-84
2022/03/11 11:40:39;;;;;;;6.13;3.35;;;12.60;45.90;;;;;;5015290;28;20045;-86
2022/03/11 11:43:13;;;;;;;7.40;4.00;;;12.50;46.00;;;;;;5023370;28;20078;-87
2022/03/11 11:45:50;;;;;;;6.18;3.97;;;12.60;45.60;;;;;;5029245;28;20040;-87
2022/03/11 11:48:43;;;;;;;8.10;4.35;;;12.70;45.90;;;;;;5013344;28;20042;-87
2022/03/11 11:51:13;;;;;;;6.45;4.25;;;12.80;45.30;;;;;;5023219;28;20497;-87
2022/03/11 11:53:43;;;;;;;11.35;4.30;;;12.90;44.90;;;;;;5007839;28;20030;-87
2022/03/11 11:56:31;;;;;;;8.63;4.60;;;13.10;45.00;;;;;;5003497;28;20046;-86
2022/03/11 11:59:01;;;;;;;8.55;4.40;;;13.00;43.70;;;;;;5024594;28;20068;-82
2022/03/11 12:01:52;;;;;;;19.30;4.78;;;13.20;44.70;;;;;;5020408;28;20482;-85
2022/03/11 12:04:39;;;;;;;7.15;4.38;;;13.40;45.40;;;;;;5025022;28;20025;-85
2022/03/11 12:07:14;;;;;;;9.02;4.88;;;13.60;44.00;;;;;;5020413;28;20544;-85
2022/03/11 12:09:58;;;;;;;6.65;4.25;;;13.60;43.40;;;;;;5020363;28;20367;-85
2022/03/11 12:12:29;;;;;;;6.22;4.03;;;13.70;43.60;;;;;;5032042;28;20179;-85
2022/03/11 12:14:57;;;;;;;10.10;4.68;;;13.70;42.50;;;;;;5021003;28;20165;-85
2022/03/11 12:17:59;;;;;;;10.98;5.22;;;13.70;42.60;;;;;;5019467;28;20042;-85
2022/03/11 12:20:46;;;;;;;6.88;4.47;;;13.50;44.00;;;;;;5026249;28;20078;-84
2022/03/11 12:23:14;;;;;;;11.82;4.22;;;13.60;43.20;;;;;;5015989;28;20042;-84
2022/03/11 12:26:00;;;;;;;8.95;4.22;;;13.70;42.80;;;;;;5027568;28;20034;-83
2022/03/11 12:28:41;;;;;;;9.15;4.45;;;13.70;43.20;;;;;;5021982;28;20507;-85
2022/03/11 12:31:13;;;;;;;7.15;4.80;;;13.60;43.40;;;;;;5025366;28;20113;-86
2022/03/11 12:33:47;;;;;;;14.10;4.38;;;13.60;42.60;;;;;;5024344;28;20437;-86
2022/03/11 12:36:14;;;;;;;7.93;4.78;;;13.50;43.70;;;;;;5005440;28;20397;-85
2022/03/11 12:38:41;;;;;;;6.50;4.43;;;13.40;43.70;;;;;;5025319;28;20053;-83
2022/03/11 12:41:10;;;;;;;7.70;5.20;;;13.40;43.10;;;;;;5018540;28;20034;-84
2022/03/11 12:43:38;;;;;;;8.63;5.03;;;13.40;44.10;;;;;;5030685;28;20048;-84